Dannemora, New York
Current Conditions -  °F | °C
As of 9:53 AM on Wednesday 22 Oct 2014 (Local Time) from KPBG Reporting Station
Overcast Overcast  
Wind Chill: 37°   Ceiling: 1100
Heat Index: 44°   Visibility: 10mi
Dew Point: 41°   Wind: 16mph
Humidity: 89%   Direction: 350°N
Pressure: 30.22"   Gusts: NA
Location:  44.72°N, 73.72°W
Report Text: KPBG 221353Z AUTO 35014KT 10SM OVC011 07/05 A3022 RMK AO2 SLP236 T00670050
Loading
Personal Weather Stations






























Interactive Weather Map
Tropical Storm Tracking
New forecast layout! Learn more

10-Day Weather Forecast

Advertisements
Track Severe Weather on mobile